createdAt,value
2022-11-05T00:00:29.661Z,4.53
2022-11-05T00:03:15.073Z,4.20
2022-11-05T00:06:00.992Z,5.00
2022-11-05T00:08:46.484Z,4.00
2022-11-05T00:11:17.934Z,4.32
2022-11-05T00:14:03.867Z,4.00
2022-11-05T00:16:45.825Z,4.53
2022-11-05T00:19:13.771Z,4.28
2022-11-05T00:21:59.483Z,4.10
2022-11-05T00:24:44.903Z,4.18
2022-11-05T00:27:12.246Z,4.25
2022-11-05T00:29:39.551Z,3.60
2022-11-05T00:32:06.655Z,2.60
2022-11-05T00:34:33.688Z,2.85
2022-11-05T00:37:00.944Z,2.47
2022-11-05T00:39:28.282Z,2.72
2022-11-05T00:42:13.951Z,2.33
2022-11-05T00:44:59.936Z,2.05
2022-11-05T00:47:45.867Z,2.10
2022-11-05T00:50:12.730Z,1.52
2022-11-05T00:53:01.093Z,1.90
2022-11-05T00:55:33.885Z,1.75
2022-11-05T00:58:02.837Z,1.40
2022-11-05T01:00:32.396Z,1.50
2022-11-05T01:03:01.403Z,1.40
2022-11-05T01:05:29.763Z,1.80
2022-11-05T01:07:57.125Z,2.08
2022-11-05T01:10:25.088Z,1.77
2022-11-05T01:12:52.385Z,1.75
2022-11-05T01:15:20.445Z,1.45
2022-11-05T01:17:47.918Z,1.80
2022-11-05T01:20:15.415Z,1.73
2022-11-05T01:22:42.714Z,1.60
2022-11-05T01:25:10.098Z,1.90
2022-11-05T01:27:38.292Z,1.52
2022-11-05T01:30:07.265Z,1.60
2022-11-05T01:32:35.861Z,1.33
2022-11-05T01:35:04.577Z,1.40
2022-11-05T01:37:31.710Z,1.52
2022-11-05T01:39:58.755Z,1.35
2022-11-05T01:42:27.424Z,1.42
2022-11-05T01:45:13.033Z,1.00
2022-11-05T01:47:50.163Z,1.30
2022-11-05T01:50:35.336Z,1.23
2022-11-05T01:53:40.730Z,1.27
2022-11-05T01:56:18.608Z,1.40
2022-11-05T01:59:03.540Z,1.02
2022-11-05T02:01:30.999Z,1.55
2022-11-05T02:04:03.173Z,1.13
2022-11-05T02:06:32.891Z,1.10
2022-11-05T02:09:08.015Z,1.38
2022-11-05T02:11:35.428Z,1.75
2022-11-05T02:14:02.491Z,1.30
2022-11-05T02:16:29.512Z,1.08
2022-11-05T02:19:37.892Z,0.98
2022-11-05T02:22:21.618Z,1.10
2022-11-05T02:25:04.944Z,0.95
2022-11-05T02:27:50.594Z,1.00
2022-11-05T02:30:51.504Z,1.02
2022-11-05T02:33:37.252Z,1.45
2022-11-05T02:36:30.344Z,1.27
2022-11-05T02:39:27.329Z,1.30
2022-11-05T02:42:04.731Z,1.10
2022-11-05T02:44:50.272Z,1.00
2022-11-05T02:47:37.581Z,0.90
2022-11-05T02:50:28.830Z,0.95
2022-11-05T02:53:35.961Z,1.00
2022-11-05T02:56:09.605Z,1.00
2022-11-05T02:58:36.448Z,0.82
2022-11-05T03:01:06.995Z,0.70
2022-11-05T03:03:43.091Z,0.90
2022-11-05T03:06:40.749Z,0.70
2022-11-05T03:09:40.493Z,0.70
2022-11-05T03:12:28.452Z,0.80
2022-11-05T03:15:13.525Z,1.00
2022-11-05T03:18:10.775Z,0.73
2022-11-05T03:20:43.165Z,0.60
2022-11-05T03:23:21.364Z,0.63
2022-11-05T03:25:53.730Z,0.90
2022-11-05T03:28:25.675Z,1.00
2022-11-05T03:30:56.536Z,0.70
2022-11-05T03:35:56.394Z,0.60
2022-11-05T03:40:55.390Z,0.55
2022-11-05T03:43:27.340Z,0.75
2022-11-05T03:46:02.026Z,0.70
2022-11-05T03:48:30.830Z,0.65
2022-11-05T03:51:28.416Z,0.70
2022-11-05T03:54:01.116Z,0.52
2022-11-05T03:56:34.288Z,0.57
2022-11-05T03:59:06.634Z,0.60
2022-11-05T04:01:36.282Z,0.47
2022-11-05T04:04:04.480Z,0.60
2022-11-05T04:06:50.122Z,0.70
2022-11-05T04:09:35.401Z,0.60
2022-11-05T04:12:21.163Z,0.30
2022-11-05T04:14:49.577Z,0.30
2022-11-05T04:17:16.637Z,0.32
2022-11-05T04:20:03.606Z,0.47
2022-11-05T04:22:51.541Z,0.60
2022-11-05T04:25:19.962Z,0.30
2022-11-05T04:27:47.460Z,0.50
2022-11-05T04:30:19.095Z,0.65
2022-11-05T04:33:06.522Z,0.40
2022-11-05T04:35:48.092Z,0.40
2022-11-05T04:38:19.652Z,0.50
2022-11-05T04:40:47.991Z,0.52
2022-11-05T04:43:18.818Z,0.70
2022-11-05T04:45:46.237Z,0.52
2022-11-05T04:48:13.146Z,0.70
2022-11-05T04:50:40.235Z,1.50
2022-11-05T04:53:07.187Z,1.75
2022-11-05T04:55:34.321Z,1.33
2022-11-05T04:58:01.153Z,0.57
2022-11-05T05:00:28.145Z,1.10
2022-11-05T05:02:55.081Z,0.77
2022-11-05T05:05:23.264Z,1.10
2022-11-05T05:07:50.427Z,0.90
2022-11-05T05:10:17.424Z,1.10
2022-11-05T05:12:44.472Z,1.00
2022-11-05T05:15:12.665Z,1.20
2022-11-05T05:17:39.513Z,1.33
2022-11-05T05:20:25.575Z,1.17
2022-11-05T05:22:55.896Z,1.40
2022-11-05T05:25:23.270Z,0.90
2022-11-05T05:27:50.411Z,0.77
2022-11-05T05:30:17.542Z,1.30
2022-11-05T05:32:44.787Z,1.50
2022-11-05T05:35:12.281Z,1.20
2022-11-05T05:37:39.181Z,1.30
2022-11-05T05:40:06.615Z,1.40
2022-11-05T05:42:36.384Z,1.38
2022-11-05T05:45:07.371Z,1.27
2022-11-05T05:47:34.246Z,1.50
2022-11-05T05:50:01.180Z,1.48
2022-11-05T05:52:28.021Z,1.55
2022-11-05T05:54:54.872Z,1.77
2022-11-05T05:57:21.704Z,1.27
2022-11-05T05:59:48.612Z,1.13
2022-11-05T06:02:16.024Z,1.70
2022-11-05T06:04:43.184Z,1.95
2022-11-05T06:07:10.153Z,1.40
2022-11-05T06:09:37.008Z,1.67
2022-11-05T06:12:04.060Z,1.83
2022-11-05T06:14:30.921Z,1.70
2022-11-05T06:16:57.796Z,1.80
2022-11-05T06:19:24.696Z,1.63
2022-11-05T06:21:51.575Z,1.50
2022-11-05T06:24:18.401Z,1.63
2022-11-05T06:26:45.222Z,1.70
2022-11-05T06:29:12.234Z,1.67
2022-11-05T06:31:39.090Z,2.00
2022-11-05T06:34:05.998Z,1.05
2022-11-05T06:36:33.544Z,1.10
2022-11-05T06:39:00.410Z,2.78
2022-11-05T06:41:27.257Z,1.30
2022-11-05T06:43:54.097Z,1.67
2022-11-05T06:46:20.938Z,1.00
2022-11-05T06:48:48.587Z,1.67
2022-11-05T06:51:15.681Z,1.10
2022-11-05T06:53:42.602Z,1.42
2022-11-05T06:56:13.902Z,1.52
2022-11-05T06:58:40.808Z,1.30
2022-11-05T07:01:10.375Z,1.90
2022-11-05T07:03:38.031Z,1.80
2022-11-05T07:06:07.068Z,1.90
2022-11-05T07:08:35.244Z,1.50
2022-11-05T07:11:02.142Z,1.50
2022-11-05T07:13:30.307Z,0.90
2022-11-05T07:15:57.397Z,1.52
2022-11-05T07:18:24.565Z,1.27
2022-11-05T07:20:51.422Z,2.33
2022-11-05T07:25:50.116Z,1.23
2022-11-05T07:28:17.237Z,1.10
2022-11-05T07:30:44.353Z,1.15
2022-11-05T07:33:11.827Z,0.98
2022-11-05T07:35:39.037Z,1.13
2022-11-05T07:38:05.951Z,1.08
2022-11-05T07:40:32.973Z,1.90
2022-11-05T07:43:01.399Z,1.65
2022-11-05T07:45:30.917Z,1.40
2022-11-05T07:48:02.736Z,1.10
2022-11-05T07:50:33.081Z,1.30
2022-11-05T07:53:05.236Z,1.30
2022-11-05T07:55:32.600Z,1.27
2022-11-05T07:57:59.845Z,2.17
2022-11-05T08:00:28.225Z,1.60
2022-11-05T08:03:08.758Z,1.60
2022-11-05T08:05:39.205Z,0.68
2022-11-05T08:08:08.313Z,1.67
2022-11-05T08:10:36.269Z,1.52
2022-11-05T08:13:04.027Z,2.10
2022-11-05T08:15:31.475Z,2.10
2022-11-05T08:18:03.406Z,2.40
2022-11-05T08:20:30.734Z,2.17
2022-11-05T08:22:58.322Z,2.17
2022-11-05T08:25:25.808Z,1.55
2022-11-05T08:28:04.556Z,2.10
2022-11-05T08:30:32.364Z,1.90
2022-11-05T08:33:06.057Z,2.25
2022-11-05T08:35:34.978Z,2.17
2022-11-05T08:38:04.481Z,2.65
2022-11-05T08:40:34.849Z,2.05
2022-11-05T08:43:03.480Z,2.17
2022-11-05T08:45:31.027Z,3.05
2022-11-05T08:48:03.368Z,1.90
2022-11-05T08:50:32.443Z,1.48
2022-11-05T08:52:59.833Z,1.83
2022-11-05T08:55:27.116Z,2.55
2022-11-05T08:58:02.621Z,1.83
2022-11-05T09:00:31.551Z,2.63
2022-11-05T09:03:03.090Z,1.88
2022-11-05T09:05:31.235Z,2.60
2022-11-05T09:08:01.361Z,3.08
2022-11-05T09:10:28.901Z,2.65
2022-11-05T09:12:56.006Z,2.63
2022-11-05T09:15:23.559Z,2.90
2022-11-05T09:17:50.841Z,2.00
2022-11-05T09:20:17.841Z,2.72
2022-11-05T09:22:45.157Z,2.47
2022-11-05T09:25:12.197Z,3.70
2022-11-05T09:27:39.055Z,3.47
2022-11-05T09:30:06.472Z,2.95
2022-11-05T09:32:34.009Z,2.85
2022-11-05T09:35:01.334Z,3.40
2022-11-05T09:37:29.055Z,3.13
2022-11-05T09:39:55.924Z,2.58
2022-11-05T09:42:28.200Z,3.63
2022-11-05T09:44:59.573Z,2.90
2022-11-05T09:47:35.035Z,2.88
2022-11-05T09:50:07.190Z,2.10
2022-11-05T09:52:34.628Z,2.95
2022-11-05T09:55:05.015Z,3.08
2022-11-05T09:57:45.994Z,3.10
2022-11-05T10:02:56.500Z,3.35
2022-11-05T10:05:32.259Z,3.47
2022-11-05T10:08:11.156Z,2.95
2022-11-05T10:11:09.963Z,3.33
2022-11-05T10:13:39.708Z,2.20
2022-11-05T10:16:30.944Z,3.53
2022-11-05T10:19:06.504Z,3.10
2022-11-05T10:22:00.013Z,2.35
2022-11-05T10:24:21.535Z,3.22
2022-11-05T10:26:50.643Z,2.72
2022-11-05T10:29:29.657Z,3.58
2022-11-05T10:32:03.346Z,3.20
2022-11-05T10:34:34.123Z,3.47
2022-11-05T10:37:01.329Z,2.90
2022-11-05T10:39:35.704Z,3.10
2022-11-05T10:42:02.617Z,3.63
2022-11-05T10:44:44.035Z,3.20
2022-11-05T10:47:32.249Z,3.78
2022-11-05T10:50:20.134Z,2.95
2022-11-05T10:53:00.133Z,3.35
2022-11-05T10:55:26.953Z,2.97
2022-11-05T10:57:54.192Z,3.50
2022-11-05T11:00:23.479Z,3.78
2022-11-05T11:02:58.151Z,3.33
2022-11-05T11:05:35.762Z,3.47
2022-11-05T11:08:25.237Z,3.58
2022-11-05T11:10:57.458Z,2.97
2022-11-05T11:13:30.201Z,4.40
2022-11-05T11:16:16.358Z,3.88
2022-11-05T11:18:43.975Z,3.83
2022-11-05T11:21:20.393Z,3.63
2022-11-05T11:24:00.881Z,3.97
2022-11-05T11:26:32.316Z,3.80
2022-11-05T11:29:15.404Z,5.65
2022-11-05T11:31:42.592Z,4.40
2022-11-05T11:34:21.147Z,3.85
2022-11-05T11:36:51.394Z,4.28
2022-11-05T11:39:24.428Z,3.58
2022-11-05T11:41:54.952Z,4.05
2022-11-05T11:44:29.641Z,4.40
2022-11-05T11:47:04.214Z,5.30
2022-11-05T11:49:33.917Z,3.78
2022-11-05T11:52:10.075Z,3.30
2022-11-05T11:54:36.923Z,3.47
2022-11-05T11:57:18.231Z,3.25
2022-11-05T12:00:07.786Z,3.25
2022-11-05T12:02:40.966Z,3.58
2022-11-05T12:05:19.422Z,4.05
2022-11-05T12:07:54.004Z,4.28
2022-11-05T12:10:47.106Z,5.07
2022-11-05T12:13:20.524Z,3.67
2022-11-05T12:15:55.012Z,4.80
2022-11-05T12:18:54.645Z,5.68
2022-11-05T12:22:00.092Z,4.70
2022-11-05T12:24:53.945Z,4.03
2022-11-05T12:27:29.845Z,4.18
2022-11-05T12:30:09.056Z,3.75
2022-11-05T12:32:54.774Z,3.15
2022-11-05T12:35:54.781Z,3.83
2022-11-05T12:38:34.183Z,4.43
2022-11-05T12:41:16.408Z,4.15
2022-11-05T12:44:10.952Z,3.67
2022-11-05T12:46:43.535Z,4.00
2022-11-05T12:49:16.429Z,3.13
2022-11-05T12:52:13.505Z,3.15
2022-11-05T12:54:43.146Z,2.72
2022-11-05T12:57:13.355Z,3.85
2022-11-05T13:00:06.779Z,4.43
2022-11-05T13:02:52.654Z,3.08
2022-11-05T13:05:43.416Z,3.33
2022-11-05T13:08:43.659Z,3.63
2022-11-05T13:11:19.687Z,4.13
2022-11-05T13:13:54.172Z,3.25
2022-11-05T13:16:33.010Z,3.97
2022-11-05T13:19:14.010Z,3.25
2022-11-05T13:24:24.233Z,1.75
2022-11-05T13:27:12.949Z,3.75
2022-11-05T13:29:52.784Z,3.35
2022-11-05T13:32:37.320Z,3.63
2022-11-05T13:35:13.846Z,3.60
2022-11-05T13:38:02.577Z,3.35
2022-11-05T13:41:04.147Z,3.00
2022-11-05T13:43:46.497Z,3.70
2022-11-05T13:46:28.492Z,3.95
2022-11-05T13:49:10.952Z,4.03
2022-11-05T13:52:06.468Z,3.00
2022-11-05T13:55:20.656Z,3.78
2022-11-05T13:58:24.251Z,4.00
2022-11-05T14:01:27.069Z,3.33
2022-11-05T14:03:56.477Z,3.20
2022-11-05T14:06:33.521Z,3.70
2022-11-05T14:09:10.062Z,3.05
2022-11-05T14:11:41.179Z,4.50
2022-11-05T14:14:16.081Z,4.00
2022-11-05T14:16:52.797Z,4.13
2022-11-05T14:19:19.581Z,3.60
2022-11-05T14:21:48.324Z,3.75
2022-11-05T14:24:24.126Z,4.00
2022-11-05T14:27:03.148Z,3.50
2022-11-05T14:29:45.546Z,4.85
2022-11-05T14:32:20.907Z,3.90
2022-11-05T14:34:49.403Z,4.10
2022-11-05T14:37:37.178Z,3.83
2022-11-05T14:40:43.519Z,3.20
2022-11-05T14:43:21.732Z,4.18
2022-11-05T14:45:57.269Z,3.65
2022-11-05T14:48:48.155Z,3.72
2022-11-05T14:51:35.783Z,3.63
2022-11-05T14:54:29.641Z,4.03
2022-11-05T14:56:59.443Z,3.97
2022-11-05T14:59:31.488Z,3.90
2022-11-05T15:02:11.813Z,3.60
2022-11-05T15:04:45.500Z,4.07
2022-11-05T15:07:23.610Z,3.72
2022-11-05T15:09:53.506Z,3.65
2022-11-05T15:12:31.730Z,3.13
2022-11-05T15:15:10.362Z,4.30
2022-11-05T15:18:07.393Z,4.10
2022-11-05T15:20:44.991Z,3.20
2022-11-05T15:23:18.247Z,3.53
2022-11-05T15:26:04.634Z,3.88
2022-11-05T15:28:41.140Z,4.13
2022-11-05T15:31:14.157Z,4.10
2022-11-05T15:33:48.388Z,4.40
2022-11-05T15:36:22.593Z,4.07
2022-11-05T15:39:15.067Z,3.13
2022-11-05T15:41:49.455Z,3.88
2022-11-05T15:44:33.027Z,3.80
2022-11-05T15:47:17.704Z,3.13
2022-11-05T15:49:54.930Z,4.28
2022-11-05T15:52:24.881Z,3.50
2022-11-05T15:55:13.324Z,4.38
2022-11-05T15:58:03.039Z,5.03
2022-11-05T16:00:33.143Z,5.65
2022-11-05T16:03:14.753Z,3.42
2022-11-05T16:05:48.288Z,4.75
2022-11-05T16:08:20.152Z,5.85
2022-11-05T16:10:50.287Z,3.65
2022-11-05T16:13:32.408Z,3.75
2022-11-05T16:16:05.041Z,2.47
2022-11-05T16:18:34.991Z,3.47
2022-11-05T16:21:10.509Z,4.10
2022-11-05T16:23:44.786Z,4.03
2022-11-05T16:29:40.069Z,4.97
2022-11-05T16:32:17.164Z,5.30
2022-11-05T16:34:49.950Z,4.65
2022-11-05T16:37:20.515Z,3.00
2022-11-05T16:39:47.617Z,3.70
2022-11-05T16:42:23.634Z,4.00
2022-11-05T16:44:51.749Z,3.38
2022-11-05T16:47:19.720Z,3.55
2022-11-05T16:49:48.671Z,2.75
2022-11-05T16:52:15.713Z,3.60
2022-11-05T16:54:42.621Z,4.10
2022-11-05T16:57:29.337Z,3.33
2022-11-05T16:59:58.152Z,3.45
2022-11-05T17:02:25.991Z,3.22
2022-11-05T17:04:53.175Z,2.70
2022-11-05T17:07:20.070Z,2.90
2022-11-05T17:09:46.922Z,2.78
2022-11-05T17:12:14.962Z,3.10
2022-11-05T17:14:41.836Z,2.03
2022-11-05T17:17:08.721Z,3.35
2022-11-05T17:19:35.608Z,3.38
2022-11-05T17:22:02.459Z,3.47
2022-11-05T17:24:29.280Z,3.22
2022-11-05T17:26:56.126Z,2.67
2022-11-05T17:29:22.951Z,2.35
2022-11-05T17:31:49.891Z,3.20
2022-11-05T17:34:16.772Z,3.17
2022-11-05T17:36:43.621Z,3.00
2022-11-05T17:39:11.056Z,3.58
2022-11-05T17:41:37.947Z,3.90
2022-11-05T17:44:04.907Z,6.70
2022-11-05T17:46:31.941Z,4.03
2022-11-05T17:48:58.806Z,5.93
2022-11-05T17:51:25.701Z,3.45
2022-11-05T17:53:52.538Z,4.63
2022-11-05T17:56:30.552Z,3.10
2022-11-05T17:59:01.419Z,3.42
2022-11-05T18:01:31.443Z,4.13
2022-11-05T18:04:02.477Z,3.58
2022-11-05T18:06:33.964Z,3.53
2022-11-05T18:09:00.890Z,3.17
2022-11-05T18:11:28.199Z,3.88
2022-11-05T18:13:55.694Z,3.03
2022-11-05T18:16:22.561Z,4.32
2022-11-05T18:18:49.424Z,3.58
2022-11-05T18:21:16.505Z,4.05
2022-11-05T18:23:56.580Z,3.67
2022-11-05T18:26:23.625Z,3.97
2022-11-05T18:28:50.688Z,4.20
2022-11-05T18:31:20.696Z,4.13
2022-11-05T18:33:48.946Z,3.53
2022-11-05T18:36:27.298Z,3.60
2022-11-05T18:38:54.627Z,3.75
2022-11-05T18:41:21.874Z,3.40
2022-11-05T18:43:48.718Z,4.07
2022-11-05T18:46:43.015Z,3.58
2022-11-05T18:49:03.126Z,3.45
2022-11-05T18:51:30.121Z,4.97
2022-11-05T18:53:57.107Z,3.35
2022-11-05T18:56:24.284Z,3.90
2022-11-05T18:59:14.766Z,4.43
2022-11-05T19:01:40.840Z,3.90
2022-11-05T19:04:07.913Z,3.58
2022-11-05T19:06:35.585Z,3.67
2022-11-05T19:09:02.618Z,4.22
2022-11-05T19:11:29.637Z,4.80
2022-11-05T19:13:56.557Z,4.60
2022-11-05T19:16:26.641Z,5.05
2022-11-05T19:18:54.446Z,4.40
2022-11-05T19:21:24.380Z,4.72
2022-11-05T19:23:52.296Z,4.57
2022-11-05T19:26:28.549Z,4.28
2022-11-05T19:28:58.808Z,5.82
2022-11-05T19:31:26.107Z,5.97
2022-11-05T19:33:54.208Z,5.47
2022-11-05T19:36:23.433Z,5.18
2022-11-05T19:38:56.243Z,5.32
2022-11-05T19:41:23.698Z,5.18
2022-11-05T19:43:50.824Z,6.25
2022-11-05T19:46:19.396Z,6.00
2022-11-05T19:48:46.508Z,6.20
2022-11-05T19:51:22.955Z,5.88
2022-11-05T19:53:52.523Z,6.63
2022-11-05T19:56:24.958Z,6.10
2022-11-05T19:58:53.360Z,6.32
2022-11-05T20:01:21.992Z,5.97
2022-11-05T20:03:49.251Z,6.50
2022-11-05T20:06:21.751Z,6.88
2022-11-05T20:09:19.421Z,6.20
2022-11-05T20:11:40.186Z,6.72
2022-11-05T20:14:09.415Z,7.60
2022-11-05T20:16:38.404Z,6.18
2022-11-05T20:19:07.532Z,6.47
2022-11-05T20:21:34.769Z,7.57
2022-11-05T20:24:01.832Z,6.65
2022-11-05T20:26:29.545Z,7.20
2022-11-05T20:28:56.754Z,8.52
2022-11-05T20:31:23.813Z,7.75
2022-11-05T20:33:51.305Z,8.38
2022-11-05T20:36:23.060Z,7.82
2022-11-05T20:38:51.540Z,7.20
2022-11-05T20:41:19.255Z,7.85
2022-11-05T20:43:47.042Z,7.63
2022-11-05T20:46:16.785Z,7.82
2022-11-05T20:48:47.050Z,9.40
2022-11-05T20:51:19.286Z,8.55
2022-11-05T20:53:46.970Z,8.82
2022-11-05T20:56:23.590Z,7.70
2022-11-05T20:58:51.247Z,7.15
2022-11-05T21:01:19.540Z,8.45
2022-11-05T21:03:47.870Z,8.13
2022-11-05T21:06:15.551Z,7.60
2022-11-05T21:08:43.271Z,8.25
2022-11-05T21:11:10.649Z,8.02
2022-11-05T21:13:38.265Z,7.75
2022-11-05T21:16:07.854Z,8.57
2022-11-05T21:18:37.028Z,8.52
2022-11-05T21:21:09.010Z,8.20
2022-11-05T21:23:35.911Z,8.13
2022-11-05T21:26:07.278Z,7.70
2022-11-05T21:28:34.610Z,8.00
2022-11-05T21:31:03.596Z,7.68
2022-11-05T21:33:31.037Z,8.65
2022-11-05T21:35:57.978Z,7.97
2022-11-05T21:38:25.219Z,7.68
2022-11-05T21:40:52.106Z,7.95
2022-11-05T21:43:18.987Z,7.68
2022-11-05T21:45:46.041Z,7.82
2022-11-05T21:48:15.274Z,7.75
2022-11-05T21:51:00.870Z,7.97
2022-11-05T21:53:46.313Z,7.93
2022-11-05T21:56:44.013Z,6.95
2022-11-05T21:59:34.747Z,7.07
2022-11-05T22:02:05.076Z,7.03
2022-11-05T22:04:34.578Z,7.93
2022-11-05T22:07:01.589Z,7.85
2022-11-05T22:09:28.699Z,6.82
2022-11-05T22:11:55.862Z,7.10
2022-11-05T22:14:23.157Z,5.75
2022-11-05T22:16:50.324Z,6.80
2022-11-05T22:19:17.759Z,7.00
2022-11-05T22:21:44.591Z,6.75
2022-11-05T22:24:11.854Z,7.00
2022-11-05T22:26:39.762Z,6.50
2022-11-05T22:29:07.005Z,6.32
2022-11-05T22:31:36.492Z,6.25
2022-11-05T22:34:04.706Z,6.38
2022-11-05T22:36:32.846Z,5.88
2022-11-05T22:38:59.929Z,6.07
2022-11-05T22:41:27.500Z,6.07
2022-11-05T22:43:54.654Z,5.47
2022-11-05T22:46:23.909Z,5.15
2022-11-05T22:48:51.135Z,5.68
2022-11-05T22:51:26.419Z,6.60
2022-11-05T22:53:54.859Z,5.70
2022-11-05T22:56:24.565Z,5.25
2022-11-05T22:58:52.168Z,5.70
2022-11-05T23:01:20.779Z,5.13
2022-11-05T23:03:49.147Z,5.38
2022-11-05T23:06:46.351Z,6.28
2022-11-05T23:09:37.792Z,5.35
2022-11-05T23:12:07.888Z,3.92
2022-11-05T23:14:36.411Z,4.83
2022-11-05T23:17:22.166Z,5.35
2022-11-05T23:20:07.834Z,6.30
2022-11-05T23:22:53.210Z,5.78
2022-11-05T23:25:22.052Z,4.75
2022-11-05T23:27:51.180Z,4.95
2022-11-05T23:30:22.809Z,4.32
2022-11-05T23:32:50.984Z,4.97
2022-11-05T23:35:38.337Z,5.28
2022-11-05T23:38:23.837Z,4.53
2022-11-05T23:41:09.033Z,4.25
2022-11-05T23:43:54.564Z,4.00
2022-11-05T23:46:40.404Z,3.85
2022-11-05T23:49:07.267Z,4.00
2022-11-05T23:51:34.102Z,3.97
2022-11-05T23:54:00.977Z,3.80
2022-11-05T23:56:27.875Z,4.05
2022-11-05T23:58:54.776Z,3.63
